Time;durP1;ratioP1;P1;durP2;ratioP2;P2;SDS_P1;SDS_P2;PMS_P1;PMS_P2;Temp;Humidity;BMP_temperature;BMP_pressure;BME280_temperature;BME280_humidity;BME280_pressure;Samples;Min_cycle;Max_cycle;Signal;HPM_P1;HPM_P2
2022/05/01 00:00:27;;;;;;;6.47;4.80;;;;;;;9.41;100.00;62968.59;5084295;28;20380;-72
2022/05/01 00:02:54;;;;;;;5.75;5.25;;;;;;;9.42;100.00;62969.09;5083280;28;20243;-74
2022/05/01 00:05:21;;;;;;;7.20;5.05;;;;;;;9.50;100.00;62972.28;5084342;28;20216;-72
2022/05/01 00:07:48;;;;;;;9.23;5.00;;;;;;;9.47;100.00;62972.25;5078621;28;20234;-73
2022/05/01 00:10:16;;;;;;;5.32;4.78;;;;;;;9.58;100.00;62980.56;5083512;28;20228;-72
2022/05/01 00:12:43;;;;;;;6.95;5.88;;;;;;;9.52;100.00;62976.91;5083628;28;20224;-72
2022/05/01 00:15:10;;;;;;;6.70;6.10;;;;;;;9.45;100.00;62967.13;5083254;28;20197;-72
2022/05/01 00:17:37;;;;;;;6.22;5.63;;;;;;;9.49;100.00;62976.84;5080104;28;20221;-73
2022/05/01 00:20:05;;;;;;;6.85;6.22;;;;;;;9.51;100.00;62978.94;5082636;28;20215;-72
2022/05/01 00:22:32;;;;;;;6.80;6.20;;;;;;;9.51;100.00;62978.94;5081940;28;20221;-71
2022/05/01 00:24:59;;;;;;;11.18;6.78;;;;;;;9.52;100.00;62979.44;5081360;28;20287;-73
2022/05/01 00:27:27;;;;;;;6.35;5.75;;;;;;;9.54;100.00;62981.53;5081026;28;20220;-72
2022/05/01 00:29:53;;;;;;;6.40;5.82;;;;;;;9.53;100.00;62981.00;5081844;28;20224;-72
2022/05/01 00:32:20;;;;;;;7.10;6.53;;;;;;;9.49;100.00;62979.41;5082676;28;20267;-74
2022/05/01 00:37:31;;;;;;;7.38;6.70;;;;;;;9.44;100.00;62973.72;5066967;28;20239;-73
2022/05/01 00:39:58;;;;;;;8.07;7.18;;;;;;;9.45;100.00;62967.13;5082180;28;20193;-72
2022/05/01 00:42:25;;;;;;;9.98;7.45;;;;;;;9.52;100.00;62977.44;5082948;28;20282;-73
2022/05/01 00:44:53;;;;;;;8.30;7.50;;;;;;;9.52;100.00;62977.44;5069722;28;20243;-74
2022/05/01 00:47:20;;;;;;;8.70;7.80;;;;;;;9.44;100.00;62969.13;5062626;28;20584;-73
2022/05/01 00:49:46;;;;;;;9.85;7.68;;;;;;;9.52;100.00;62976.91;5080662;28;20275;-73
2022/05/01 00:52:13;;;;;;;7.55;6.85;;;;;;;9.49;100.00;62971.78;5079837;28;20454;-72
2022/05/01 00:54:43;;;;;;;9.45;7.80;;;;;;;9.43;100.00;62970.66;5066299;28;20201;-72
2022/05/01 00:57:10;;;;;;;8.98;8.18;;;;;;;9.45;100.00;62972.22;5070622;28;20224;-72
2022/05/01 00:59:38;;;;;;;11.88;9.38;;;;;;;9.45;100.00;62974.75;5080323;28;20192;-72
2022/05/01 01:02:08;;;;;;;10.75;8.70;;;;;;;9.38;100.00;62962.94;5077693;28;20250;-72
2022/05/01 01:04:35;;;;;;;9.20;8.38;;;;;;;9.42;100.00;62964.03;5062521;28;20205;-72
2022/05/01 01:07:02;;;;;;;9.05;8.27;;;;;;;9.38;100.00;62964.97;5071163;28;20271;-73
2022/05/01 01:09:30;;;;;;;9.27;8.38;;;;;;;9.43;100.00;62970.13;5082641;28;20491;-73
2022/05/01 01:14:42;;;;;;;9.88;8.82;;;;;;;9.33;100.00;62958.31;5081441;28;20519;-74
2022/05/01 01:17:11;;;;;;;10.48;9.40;;;;;;;9.35;100.00;62957.31;5082524;28;20514;-73
2022/05/01 01:19:37;;;;;;;9.57;8.52;;;;;;;9.30;100.00;62957.22;5080013;28;20502;-73
2022/05/01 01:22:08;;;;;;;9.43;8.38;;;;;;;9.28;100.00;62955.16;5073439;28;20555;-72
2022/05/01 01:24:37;;;;;;;9.93;8.35;;;;;;;9.22;100.00;62943.88;5082256;28;20216;-72
2022/05/01 01:27:06;;;;;;;9.98;9.02;;;;;;;9.26;100.00;62953.09;5081548;28;20197;-73
2022/05/01 01:32:20;;;;;;;9.68;8.75;;;;;;;9.01;100.00;62925.22;5082548;28;20322;-72
2022/05/01 01:34:51;;;;;;;10.50;9.43;;;;;;;8.89;100.00;62914.84;5080841;28;20232;-72
2022/05/01 01:37:20;;;;;;;9.32;8.40;;;;;;;8.89;100.00;62912.28;5081086;28;20266;-72
2022/05/01 01:39:49;;;;;;;11.00;9.15;;;;;;;8.87;100.00;62910.75;5078556;28;20389;-72
2022/05/01 01:42:18;;;;;;;9.30;8.40;;;;;;;8.75;100.00;62900.38;5081524;28;20247;-72
2022/05/01 01:44:46;;;;;;;12.93;8.07;;;;;;;8.81;100.00;62906.56;5080919;28;20246;-73
2022/05/01 01:47:14;;;;;;;10.70;8.27;;;;;;;8.79;100.00;62902.47;5079218;28;20226;-73
2022/05/01 01:49:41;;;;;;;9.70;8.55;;;;;;;8.77;100.00;62897.34;5062455;28;20201;-72
2022/05/01 01:52:07;;;;;;;9.75;8.73;;;;;;;8.58;100.00;62880.25;5065460;28;20414;-73
2022/05/01 01:54:36;;;;;;;9.70;8.70;;;;;;;8.59;100.00;62883.84;5081060;28;20414;-73
2022/05/01 01:57:03;;;;;;;8.95;8.05;;;;;;;8.66;100.00;62888.53;5072499;28;20201;-73
2022/05/01 01:59:30;;;;;;;13.57;8.50;;;;;;;8.73;100.00;62893.72;5062124;28;20235;-72
2022/05/01 02:01:57;;;;;;;11.98;8.57;;;;;;;8.66;100.00;62891.56;5073986;28;20207;-73
2022/05/01 02:04:24;;;;;;;11.13;9.35;;;;;;;8.63;100.00;62890.53;5079367;28;20326;-72
2022/05/01 02:06:51;;;;;;;9.48;8.57;;;;;;;8.58;100.00;62882.78;5067785;28;20201;-72
2022/05/01 02:09:18;;;;;;;10.15;8.75;;;;;;;8.55;100.00;62880.22;5062136;28;20250;-72
2022/05/01 02:11:46;;;;;;;8.85;7.68;;;;;;;8.52;100.00;62877.13;5075260;28;20300;-73
2022/05/01 02:14:13;;;;;;;8.65;7.85;;;;;;;8.46;100.00;62870.41;5079075;28;20235;-72
2022/05/01 02:16:40;;;;;;;8.52;7.45;;;;;;;8.36;100.00;62860.06;5062470;28;20213;-73
2022/05/01 02:19:08;;;;;;;8.50;7.70;;;;;;;8.30;100.00;62846.28;5061867;28;20534;-73
2022/05/01 02:21:38;;;;;;;10.50;7.85;;;;;;;8.14;100.00;62838.34;5073204;28;20242;-73
2022/05/01 02:24:09;;;;;;;9.02;7.88;;;;;;;8.08;100.00;62832.16;5077959;28;20262;-73
2022/05/01 02:26:37;;;;;;;9.40;8.45;;;;;;;8.08;100.00;62832.16;5082893;28;20197;-73
2022/05/01 02:29:09;;;;;;;10.57;9.38;;;;;;;8.11;100.00;62837.31;5085281;28;20475;-73
2022/05/01 02:31:38;;;;;;;10.43;8.90;;;;;;;7.98;100.00;62821.84;5084380;28;20340;-73
2022/05/01 02:34:05;;;;;;;11.35;9.95;;;;;;;7.97;100.00;62815.22;5071277;28;20283;-73
2022/05/01 02:36:32;;;;;;;14.00;11.07;;;;;;;7.99;100.00;62820.34;5086141;28;20192;-73
2022/05/01 02:38:59;;;;;;;12.70;10.30;;;;;;;8.02;100.00;62825.47;5086430;28;20239;-73
2022/05/01 02:41:26;;;;;;;14.50;11.32;;;;;;;7.99;100.00;62822.34;5085750;28;20243;-74
2022/05/01 02:43:53;;;;;;;15.13;11.45;;;;;;;8.01;100.00;62827.47;5070890;28;20244;-72
2022/05/01 02:46:22;;;;;;;12.15;10.43;;;;;;;7.99;100.00;62820.34;5081425;28;20197;-73
2022/05/01 02:48:49;;;;;;;13.88;11.45;;;;;;;7.90;100.00;62813.06;5085824;28;20217;-73
2022/05/01 02:51:16;;;;;;;12.82;11.25;;;;;;;7.86;100.00;62806.94;5076749;28;20270;-73
2022/05/01 02:53:43;;;;;;;15.65;11.00;;;;;;;7.90;100.00;62813.06;5084279;28;20439;-74
2022/05/01 02:56:10;;;;;;;12.05;10.75;;;;;;;7.83;100.00;62806.38;5083399;28;20223;-74
2022/05/01 02:58:37;;;;;;;12.98;10.38;;;;;;;7.86;100.00;62812.00;5085555;28;20216;-73
2022/05/01 03:01:03;;;;;;;13.50;11.13;;;;;;;7.85;100.00;62808.41;5080397;28;20197;-74
2022/05/01 03:03:32;;;;;;;19.10;11.25;;;;;;;7.84;100.00;62804.84;5085894;28;20422;-73
2022/05/01 03:05:59;;;;;;;13.90;11.18;;;;;;;7.95;100.00;62815.69;5083737;28;20216;-73
2022/05/01 03:08:27;;;;;;;14.30;11.00;;;;;;;7.87;100.00;62804.88;5082442;28;20412;-73
2022/05/01 03:10:53;;;;;;;13.38;10.98;;;;;;;7.81;100.00;62806.31;5066441;28;20259;-73
2022/05/01 03:13:20;;;;;;;12.48;9.48;;;;;;;7.95;100.00;62820.78;5074004;28;20516;-72
2022/05/01 03:15:47;;;;;;;9.93;8.93;;;;;;;7.97;100.00;62815.22;5083338;28;20205;-73
2022/05/01 03:23:45;;;;;;;11.35;9.32;;;;;;;8.08;100.00;62829.63;5085101;28;20535;-73
2022/05/01 03:26:12;;;;;;;9.15;8.15;;;;;;;8.14;100.00;62837.84;5081234;28;20453;-73
2022/05/01 03:28:40;;;;;;;9.82;8.80;;;;;;;8.16;100.00;62842.97;5076830;28;20213;-73
2022/05/01 03:31:09;;;;;;;9.88;8.15;;;;;;;8.25;100.00;62846.69;5084455;28;20588;-72
2022/05/01 03:33:36;;;;;;;9.35;8.05;;;;;;;8.33;100.00;62856.97;5084237;28;20251;-73
2022/05/01 03:36:06;;;;;;;7.65;6.95;;;;;;;8.33;100.00;62854.97;5082142;28;20250;-73
2022/05/01 03:38:35;;;;;;;7.97;7.15;;;;;;;8.40;100.00;62862.19;5085158;28;20417;-73
2022/05/01 03:41:03;;;;;;;8.38;7.55;;;;;;;8.52;100.00;62874.06;5087285;28;20197;-73
2022/05/01 03:43:30;;;;;;;9.82;7.82;;;;;;;8.47;100.00;62873.97;5086239;28;20243;-73
2022/05/01 03:45:57;;;;;;;8.75;7.85;;;;;;;8.59;100.00;62881.81;5076916;28;20227;-73
2022/05/01 03:48:23;;;;;;;8.23;7.32;;;;;;;8.67;100.00;62895.16;5080937;28;20228;-73
2022/05/01 03:50:52;;;;;;;9.13;7.63;;;;;;;8.55;100.00;62880.22;5086178;28;20228;-74
2022/05/01 03:53:20;;;;;;;9.38;7.25;;;;;;;8.63;100.00;62887.97;5085337;28;20418;-73
2022/05/01 03:55:47;;;;;;;8.80;7.90;;;;;;;8.69;100.00;62892.16;5075447;28;20235;-73
2022/05/01 03:58:14;;;;;;;14.52;11.23;;;;;;;8.74;100.00;62896.78;5086220;28;20270;-74
2022/05/01 04:00:44;;;;;;;14.27;10.93;;;;;;;8.80;100.00;62908.09;5086257;28;20196;-74
2022/05/01 04:03:11;;;;;;;9.27;8.38;;;;;;;8.89;100.00;62910.28;5083365;28;20283;-73
2022/05/01 04:05:37;;;;;;;9.68;8.15;;;;;;;8.89;100.00;62917.38;5078844;28;20196;-73
2022/05/01 04:08:05;;;;;;;9.05;8.15;;;;;;;8.95;100.00;62916.47;5086171;28;20541;-74
2022/05/01 04:10:33;;;;;;;9.82;7.80;;;;;;;9.10;100.00;62934.00;5086176;28;20260;-73
2022/05/01 04:13:00;;;;;;;11.02;8.50;;;;;;;9.17;100.00;62944.31;5084437;28;20266;-77
2022/05/01 04:15:27;;;;;;;7.82;7.05;;;;;;;9.22;100.00;62946.94;5086677;28;20269;-73
2022/05/01 04:17:54;;;;;;;9.35;7.40;;;;;;;9.23;100.00;62950.00;5087341;28;20216;-76
2022/05/01 04:20:22;;;;;;;7.93;7.13;;;;;;;9.12;100.00;62939.13;5086872;28;20254;-74
2022/05/01 04:22:50;;;;;;;8.48;7.53;;;;;;;9.23;100.00;62947.44;5074973;28;20256;-74
2022/05/01 04:25:18;;;;;;;11.93;7.25;;;;;;;9.30;100.00;62952.66;5075743;28;20243;-74
2022/05/01 04:27:48;;;;;;;8.65;7.75;;;;;;;9.48;100.00;62975.31;5086122;28;20220;-75
2022/05/01 04:30:17;;;;;;;9.15;7.80;;;;;;;9.60;100.00;62987.72;5087285;28;20196;-75
2022/05/01 04:32:49;;;;;;;10.98;8.52;;;;;;;9.66;100.00;62989.38;5080407;28;20232;-74
2022/05/01 04:35:25;;;;;;;9.00;8.13;;;;;;;9.86;100.00;63012.06;5088927;28;20201;-73
2022/05/01 04:37:52;;;;;;;11.90;10.05;;;;;;;10.01;100.00;63030.63;5082861;28;20293;-73
2022/05/01 04:40:19;;;;;;;8.88;7.93;;;;;;;10.11;100.00;63035.91;5077885;28;20263;-73
2022/05/01 04:42:47;;;;;;;9.43;8.15;;;;;;;10.33;100.00;63061.22;5085607;28;20367;-73
2022/05/01 04:45:14;;;;;;;9.65;8.65;;;;;;;10.45;100.00;63075.69;5081246;28;20386;-73
2022/05/01 04:47:41;;;;;;;9.65;7.53;;;;;;;10.71;100.00;63102.06;5084292;28;20235;-73
2022/05/01 04:50:11;;;;;;;10.68;7.25;;;;;;;10.80;100.00;63109.38;5084672;28;20219;-76
2022/05/01 04:52:38;;;;;;;11.75;8.20;;;;;;;10.99;100.00;63131.56;5085968;28;20286;-74
2022/05/01 04:55:07;;;;;;;8.45;7.65;;;;;;;11.30;100.00;63163.66;5079552;28;20204;-73
2022/05/01 04:57:33;;;;;;;8.40;7.68;;;;;;;11.51;100.00;63182.34;5079492;28;20216;-73
2022/05/01 05:00:01;;;;;;;9.05;8.13;;;;;;;11.65;100.00;63201.47;5083486;28;20242;-73
2022/05/01 05:02:37;;;;;;;8.88;7.97;;;;;;;11.72;100.00;63206.69;5079745;28;20216;-73
2022/05/01 05:05:04;;;;;;;10.07;8.32;;;;;;;11.91;100.00;63228.41;5080211;28;20192;-73
2022/05/01 05:07:31;;;;;;;8.68;7.88;;;;;;;11.75;100.00;63211.81;5080917;28;20274;-73
2022/05/01 05:09:57;;;;;;;10.43;8.68;;;;;;;11.78;100.00;63212.91;5083990;28;20196;-73
2022/05/01 05:12:25;;;;;;;10.55;8.73;;;;;;;11.61;100.00;63197.81;5071677;28;20556;-74
2022/05/01 05:14:54;;;;;;;12.25;9.20;;;;;;;11.47;100.00;63183.84;5067337;28;20212;-75
2022/05/01 05:17:23;;;;;;;11.82;9.30;;;;;;;11.23;100.00;63155.91;5080847;28;20224;-73
2022/05/01 05:19:50;;;;;;;19.77;14.25;;;;;;;11.01;100.00;63135.69;5081213;28;20200;-73
2022/05/01 05:22:17;;;;;;;12.02;10.80;;;;;;;10.77;100.00;63110.84;5080570;28;20296;-73
2022/05/01 05:24:44;;;;;;;15.38;11.43;;;;;;;10.87;100.00;63113.53;5081905;28;20219;-73
2022/05/01 05:27:11;;;;;;;13.90;11.40;;;;;;;10.95;100.00;63122.34;5080612;28;20285;-74
2022/05/01 05:29:38;;;;;;;13.50;11.63;;;;;;;11.07;100.00;63137.31;5079225;28;20280;-74
2022/05/01 05:32:06;;;;;;;13.27;11.50;;;;;;;11.33;100.00;63161.16;5067226;28;20423;-73
2022/05/01 05:34:35;;;;;;;16.35;11.48;;;;;;;11.38;100.00;63168.88;5071832;28;20246;-73
2022/05/01 05:37:01;;;;;;;12.77;11.45;;;;;;;11.58;100.00;63192.66;5082776;28;20501;-74
2022/05/01 05:39:28;;;;;;;23.65;19.58;;;;;;;11.60;100.00;63192.19;5073619;28;20239;-74
2022/05/01 05:41:55;;;;;;;17.65;12.07;;;;;;;11.83;100.00;63217.56;5070342;28;20193;-75
2022/05/01 05:44:22;;;;;;;13.05;10.20;;;;;;;11.85;100.00;63220.16;5084187;28;20246;-73
2022/05/01 05:46:49;;;;;;;11.35;10.25;;;;;;;11.94;100.00;63223.84;5087847;28;20233;-73
2022/05/01 05:49:16;;;;;;;11.48;8.85;;;;;;;12.24;100.00;63260.03;5080076;28;20201;-74
2022/05/01 05:51:44;;;;;;;12.60;9.07;;;;;;;12.13;100.00;63251.72;5080814;28;20553;-74
2022/05/01 05:54:11;;;;;;;12.98;9.65;;;;;;;12.13;100.00;63248.66;5083150;28;20405;-74
2022/05/01 05:56:38;;;;;;;12.75;10.63;;;;;;;12.43;100.00;63277.19;5081184;28;20492;-73
2022/05/01 05:59:05;;;;;;;11.57;9.25;;;;;;;12.40;100.00;63277.16;5065190;28;20408;-74
2022/05/01 06:01:31;;;;;;;10.32;8.88;;;;;;;12.47;100.00;63283.91;5075316;28;20246;-74
2022/05/01 06:03:58;;;;;;;11.40;10.27;;;;;;;12.60;100.00;63297.38;5084975;28;20223;-74
2022/05/01 06:06:25;;;;;;;9.55;8.55;;;;;;;12.87;100.00;63324.84;5082223;28;20197;-75
2022/05/01 06:08:53;;;;;;;10.68;9.57;;;;;;;12.88;100.00;63320.78;5086587;28;20213;-73
2022/05/01 06:11:20;;;;;;;10.60;9.00;;;;;;;13.13;100.00;63352.34;5084324;28;20415;-73
2022/05/01 06:13:47;;;;;;;11.75;9.10;;;;;;;13.09;100.00;63345.66;5085284;28;20500;-75
2022/05/01 06:16:14;;;;;;;9.57;8.65;;;;;;;13.21;100.00;63363.22;5076083;28;20240;-73
2022/05/01 06:18:41;;;;;;;10.50;9.48;;;;;;;13.19;100.00;63358.06;5066394;28;20225;-74
2022/05/01 06:21:07;;;;;;;10.20;9.15;;;;;;;13.32;99.73;63372.06;5085436;28;20234;-75
2022/05/01 06:23:35;;;;;;;10.57;9.45;;;;;;;13.35;99.92;63377.22;5084875;28;20216;-73
2022/05/01 06:26:05;;;;;;;12.93;9.43;;;;;;;13.42;99.67;63381.94;5085303;28;20246;-75
2022/05/01 06:28:32;;;;;;;12.00;9.25;;;;;;;13.33;99.72;63367.47;5085914;28;20395;-76
2022/05/01 06:31:00;;;;;;;11.52;9.25;;;;;;;13.20;99.28;63359.09;5085893;28;20204;-74
2022/05/01 06:33:28;;;;;;;10.35;8.48;;;;;;;13.46;97.62;63384.03;5082491;28;20230;-74
2022/05/01 06:35:56;;;;;;;10.18;8.85;;;;;;;13.62;97.67;63400.63;5085777;28;20242;-76
2022/05/01 06:38:23;;;;;;;13.45;9.00;;;;;;;13.27;96.11;63369.44;5085000;28;20220;-75
2022/05/01 06:40:50;;;;;;;9.75;8.75;;;;;;;13.26;97.25;63365.31;5085791;28;20197;-75
2022/05/01 06:43:20;;;;;;;10.07;9.07;;;;;;;13.44;97.11;63386.56;5078080;28;20268;-75
2022/05/01 06:45:46;;;;;;;9.35;7.80;;;;;;;13.72;96.41;63416.13;5085086;28;20256;-75
2022/05/01 06:48:14;;;;;;;8.85;8.00;;;;;;;13.89;92.16;63430.72;5086012;28;20233;-75
2022/05/01 06:50:41;;;;;;;6.88;6.38;;;;;;;14.03;87.92;63442.16;5085978;28;20217;-74
2022/05/01 06:53:08;;;;;;;7.07;6.40;;;;;;;14.22;86.55;63467.00;5071486;28;20233;-74
2022/05/01 06:55:35;;;;;;;6.65;6.13;;;;;;;14.43;85.16;63483.69;5077336;28;20259;-74
2022/05/01 06:58:02;;;;;;;6.10;5.60;;;;;;;14.27;81.25;63470.16;5078634;28;20254;-74
2022/05/01 07:00:30;;;;;;;5.68;5.28;;;;;;;14.36;84.63;63481.56;5077814;28;20201;-75
2022/05/01 07:02:58;;;;;;;5.28;4.88;;;;;;;14.33;80.45;63473.84;5082333;28;20232;-75
2022/05/01 07:05:25;;;;;;;5.97;5.28;;;;;;;14.61;81.27;63504.97;5071389;28;20555;-75
2022/05/01 07:07:54;;;;;;;5.45;5.00;;;;;;;14.73;77.22;63520.53;5070174;28;20221;-76
2022/05/01 07:10:22;;;;;;;5.28;4.88;;;;;;;14.55;75.54;63498.72;5065802;28;20243;-74
2022/05/01 07:12:49;;;;;;;6.50;5.90;;;;;;;14.42;78.03;63480.63;5065856;28;20229;-74
2022/05/01 07:15:16;;;;;;;5.45;4.50;;;;;;;14.49;75.64;63498.16;5077396;28;20514;-75
2022/05/01 07:17:44;;;;;;;5.57;5.18;;;;;;;14.67;76.52;63508.63;5080136;28;20254;-75
2022/05/01 07:20:12;;;;;;;6.32;5.72;;;;;;;14.79;78.33;63523.66;5086109;28;20197;-75
2022/05/01 07:22:39;;;;;;;6.20;5.60;;;;;;;14.98;75.17;63538.25;5082804;28;20236;-76
2022/05/01 07:25:07;;;;;;;5.38;4.97;;;;;;;15.40;75.11;63583.97;5084847;28;20212;-75
2022/05/01 07:27:34;;;;;;;7.43;5.75;;;;;;;15.97;69.40;63646.31;5083846;28;20227;-78
2022/05/01 07:30:01;;;;;;;5.78;5.28;;;;;;;16.35;62.64;63682.22;5085773;28;20519;-76
2022/05/01 07:32:28;;;;;;;9.60;5.00;;;;;;;16.37;64.33;63687.41;5078844;28;20250;-77
2022/05/01 07:34:56;;;;;;;6.47;5.93;;;;;;;16.08;60.82;63654.69;5087007;28;20264;-77
2022/05/01 07:37:24;;;;;;;6.07;5.57;;;;;;;16.19;61.10;63669.19;5085255;28;20600;-76
2022/05/01 07:39:52;;;;;;;5.80;5.32;;;;;;;16.40;62.83;63690.00;5084485;28;20196;-76
2022/05/01 07:42:19;;;;;;;10.35;6.20;;;;;;;16.49;63.67;63699.38;5080390;28;20499;-76
2022/05/01 07:44:46;;;;;;;6.05;5.25;;;;;;;16.72;61.47;63723.81;5084449;28;20564;-76
2022/05/01 07:47:12;;;;;;;5.97;5.38;;;;;;;16.97;59.78;63752.44;5084918;28;20275;-76
2022/05/01 07:49:39;;;;;;;5.50;5.10;;;;;;;16.88;58.54;63737.91;5082772;28;20204;-77
2022/05/01 07:52:09;;;;;;;5.50;5.10;;;;;;;16.70;58.63;63721.25;5069459;28;20235;-75
2022/05/01 07:54:36;;;;;;;6.22;5.72;;;;;;;16.81;57.80;63735.78;5064733;28;20193;-75
2022/05/01 07:57:03;;;;;;;7.90;4.75;;;;;;;16.41;58.17;63691.56;5064966;28;20409;-76
2022/05/01 07:59:30;;;;;;;5.57;5.18;;;;;;;16.19;58.26;63669.19;5072628;28;20200;-76
2022/05/01 08:01:56;;;;;;;4.13;3.90;;;;;;;16.41;56.27;63686.41;5064676;28;20261;-76
2022/05/01 08:04:28;;;;;;;5.20;4.80;;;;;;;16.33;59.58;63682.72;5065612;28;20196;-77
2022/05/01 08:06:55;;;;;;;4.75;4.45;;;;;;;16.63;58.83;63713.94;5064856;28;20189;-76
2022/05/01 08:09:23;;;;;;;6.50;4.70;;;;;;;16.71;57.17;63722.28;5072297;28;20498;-77
2022/05/01 08:11:51;;;;;;;5.78;5.38;;;;;;;16.88;56.62;63743.06;5067448;28;20269;-75
2022/05/01 08:14:18;;;;;;;4.97;4.63;;;;;;;16.99;54.55;63753.97;5064193;28;20204;-75
2022/05/01 08:16:46;;;;;;;4.82;4.53;;;;;;;17.25;53.67;63779.00;5071782;28;20279;-74
2022/05/01 08:21:57;;;;;;;5.47;4.97;;;;;;;17.52;53.69;63809.19;5084513;28;20186;-76
2022/05/01 08:24:25;;;;;;;3.97;3.78;;;;;;;17.19;52.08;63772.75;5084371;28;20216;-76
2022/05/01 08:26:52;;;;;;;4.43;4.03;;;;;;;17.00;50.28;63752.44;5079614;28;20223;-75
2022/05/01 08:29:19;;;;;;;4.45;4.18;;;;;;;17.15;49.50;63766.00;5066013;28;20217;-75
2022/05/01 08:31:46;;;;;;;3.75;3.47;;;;;;;17.11;47.62;63766.47;5064812;28;20219;-78
2022/05/01 08:34:13;;;;;;;3.63;3.42;;;;;;;17.07;50.01;63759.72;5064046;28;20217;-76
2022/05/01 08:36:40;;;;;;;4.20;3.75;;;;;;;17.17;50.95;63770.16;5076739;28;20197;-76
2022/05/01 08:39:07;;;;;;;3.75;3.40;;;;;;;17.26;49.47;63776.94;5075726;28;20408;-77
2022/05/01 08:41:35;;;;;;;3.55;3.25;;;;;;;17.16;48.98;63767.06;5083974;28;20223;-75
2022/05/01 08:44:03;;;;;;;3.30;3.00;;;;;;;16.98;50.46;63753.47;5082602;28;20281;-75
2022/05/01 08:46:46;;;;;;;3.60;3.50;;;;;;;17.31;49.91;63782.13;5071919;28;20402;-76
2022/05/01 08:49:17;;;;;;;3.85;3.65;;;;;;;17.81;48.71;63838.88;5065273;28;20279;-76
2022/05/01 08:51:44;;;;;;;3.70;3.40;;;;;;;17.73;44.65;63828.47;5068109;28;20196;-76
2022/05/01 08:54:13;;;;;;;4.20;2.70;;;;;;;18.19;45.66;63878.44;5079586;28;20376;-76
2022/05/01 08:56:44;;;;;;;2.60;2.50;;;;;;;18.16;42.54;63873.25;5084080;28;20192;-76
2022/05/01 08:59:12;;;;;;;3.05;2.90;;;;;;;17.86;44.49;63844.06;5082524;28;20299;-77
2022/05/01 09:01:41;;;;;;;3.70;3.50;;;;;;;17.68;47.45;63825.84;5082313;28;20242;-77
2022/05/01 09:04:09;;;;;;;2.95;2.80;;;;;;;17.43;46.15;63796.69;5083571;28;20224;-75
2022/05/01 09:06:37;;;;;;;3.45;3.25;;;;;;;17.86;47.22;63841.50;5083529;28;20227;-76
2022/05/01 09:09:06;;;;;;;4.72;2.85;;;;;;;18.06;45.13;63859.75;5075976;28;20223;-76
2022/05/01 09:14:18;;;;;;;3.15;3.03;;;;;;;18.24;45.41;63881.09;5083560;28;20229;-76
2022/05/01 09:17:13;;;;;;;3.00;2.80;;;;;;;18.11;45.64;63867.53;5083124;28;20196;-76
2022/05/01 09:19:40;;;;;;;3.17;2.97;;;;;;;18.45;46.00;63905.53;5082557;28;20208;-76
2022/05/01 09:22:07;;;;;;;3.30;3.10;;;;;;;18.56;44.53;63919.59;5080662;28;20402;-76
2022/05/01 09:24:34;;;;;;;2.75;2.55;;;;;;;18.89;43.16;63951.41;5083022;28;20224;-78
2022/05/01 09:27:01;;;;;;;3.20;3.00;;;;;;;18.49;43.51;63906.63;5077961;28;20193;-77
2022/05/01 09:29:34;;;;;;;2.90;2.80;;;;;;;18.56;41.60;63917.00;5069827;28;20196;-77
2022/05/01 09:32:03;;;;;;;2.28;2.17;;;;;;;18.68;41.23;63929.53;5083655;28;20192;-78
2022/05/01 09:34:32;;;;;;;3.33;2.88;;;;;;;18.65;43.53;63918.13;5083597;28;20519;-77
2022/05/01 09:37:03;;;;;;;2.35;2.25;;;;;;;18.26;40.42;63885.72;5070957;28;20205;-78
2022/05/01 09:39:31;;;;;;;2.35;2.15;;;;;;;18.40;42.19;63900.34;5080166;28;20384;-76
2022/05/01 09:42:14;;;;;;;5.80;2.72;;;;;;;18.36;41.83;63893.59;5080304;28;20272;-79
2022/05/01 09:44:42;;;;;;;2.08;1.98;;;;;;;18.58;41.66;63916.00;5076919;28;20234;-77
2022/05/01 09:47:09;;;;;;;1.98;1.88;;;;;;;18.88;42.47;63950.34;5077644;28;20453;-78
2022/05/01 09:49:48;;;;;;;3.88;2.38;;;;;;;18.83;39.24;63942.03;5081957;28;20242;-78
2022/05/01 09:52:15;;;;;;;1.90;1.80;;;;;;;19.49;39.31;64014.00;5081072;28;20243;-77
2022/05/01 09:54:42;;;;;;;3.95;2.38;;;;;;;19.54;40.14;64016.09;5082240;28;20196;-78
2022/05/01 09:57:23;;;;;;;1.80;1.80;;;;;;;19.73;37.61;64035.91;5080206;28;20248;-77
2022/05/01 09:59:52;;;;;;;1.80;1.80;;;;;;;19.74;39.22;64036.97;5081139;28;20349;-77
2022/05/01 10:02:29;;;;;;;2.00;1.90;;;;;;;20.02;40.08;64065.66;5082286;28;20228;-77
2022/05/01 10:05:02;;;;;;;2.03;1.92;;;;;;;19.63;42.01;64027.53;5079939;28;20274;-76
2022/05/01 10:07:34;;;;;;;1.90;1.80;;;;;;;19.90;39.63;64053.63;5082626;28;20230;-77
2022/05/01 10:10:03;;;;;;;2.55;1.83;;;;;;;19.75;39.37;64038.00;5080246;28;20196;-76
2022/05/01 10:12:35;;;;;;;1.90;1.80;;;;;;;19.65;37.49;64030.16;5080803;28;20232;-77
2022/05/01 10:15:04;;;;;;;1.80;1.70;;;;;;;19.73;38.13;64038.50;5080666;28;20203;-77
2022/05/01 10:17:32;;;;;;;1.73;1.73;;;;;;;19.45;36.84;64009.28;5080553;28;20220;-76
2022/05/01 10:20:00;;;;;;;1.90;1.80;;;;;;;19.07;37.53;63964.50;5083389;28;20204;-77
2022/05/01 10:22:27;;;;;;;2.35;2.22;;;;;;;18.96;37.50;63958.19;5078886;28;20219;-77
2022/05/01 10:24:54;;;;;;;2.42;2.10;;;;;;;18.65;38.17;63923.28;5082088;28;20290;-78
2022/05/01 10:27:29;;;;;;;2.13;2.03;;;;;;;18.30;40.21;63889.91;5081222;28;20246;-77
2022/05/01 10:33:11;;;;;;;3.28;1.85;;;;;;;19.00;39.64;63964.94;5079618;28;20227;-76
2022/05/01 10:36:19;;;;;;;2.15;2.05;;;;;;;18.92;41.58;63948.84;5081066;28;20507;-77
2022/05/01 10:39:01;;;;;;;2.67;2.35;;;;;;;19.31;39.96;63992.13;5070350;28;20216;-77
2022/05/01 10:41:29;;;;;;;1.67;1.60;;;;;;;19.18;38.31;63981.66;5081831;28;20204;-77
2022/05/01 10:43:57;;;;;;;2.17;1.88;;;;;;;19.34;37.74;63995.78;5080797;28;20246;-77
2022/05/01 10:46:30;;;;;;;1.88;1.77;;;;;;;19.02;36.11;63959.25;5072593;28;20516;-77
2022/05/01 10:49:00;;;;;;;2.08;1.98;;;;;;;18.98;36.72;63957.69;5066802;28;20216;-78
2022/05/01 10:51:52;;;;;;;2.15;2.05;;;;;;;19.13;38.46;63976.44;5080848;28;20399;-77
2022/05/01 10:54:39;;;;;;;2.03;1.92;;;;;;;18.95;40.69;63952.50;5085855;28;20228;-76
2022/05/01 10:57:17;;;;;;;2.10;2.00;;;;;;;19.09;40.33;63972.25;5085680;28;20513;-76
2022/05/01 11:00:17;;;;;;;2.28;2.17;;;;;;;19.12;39.00;63974.88;5082783;28;20551;-76
2022/05/01 11:02:48;;;;;;;2.30;2.17;;;;;;;18.60;41.09;63918.59;5084902;28;20239;-77
2022/05/01 11:05:42;;;;;;;2.00;1.90;;;;;;;18.75;38.50;63936.81;5085915;28;20255;-76
2022/05/01 11:08:15;;;;;;;4.20;2.08;;;;;;;18.65;41.00;63928.97;5081191;28;20224;-76
2022/05/01 11:10:42;;;;;;;2.30;2.20;;;;;;;18.65;38.71;63925.88;5081247;28;20212;-77
2022/05/01 11:13:13;;;;;;;2.30;2.20;;;;;;;18.96;39.47;63955.59;5083323;28;20236;-78
2022/05/01 11:15:47;;;;;;;2.15;2.05;;;;;;;18.61;39.81;63916.53;5083738;28;20250;-76
2022/05/01 11:18:16;;;;;;;2.15;2.05;;;;;;;18.67;40.00;63928.50;5084538;28;20261;-77
2022/05/01 11:20:43;;;;;;;2.75;2.28;;;;;;;18.73;37.91;63929.56;5083927;28;20196;-76
2022/05/01 11:23:31;;;;;;;2.75;2.05;;;;;;;18.96;39.06;63956.13;5083433;28;20598;-78
2022/05/01 11:26:13;;;;;;;1.90;1.80;;;;;;;19.12;37.33;63975.38;5081450;28;20208;-76
2022/05/01 11:28:54;;;;;;;2.00;1.90;;;;;;;18.91;38.28;63950.41;5082021;28;20217;-79
2022/05/01 11:31:44;;;;;;;1.95;1.85;;;;;;;19.11;38.24;63974.34;5079989;28;20231;-77
2022/05/01 11:34:54;;;;;;;2.42;2.33;;;;;;;19.47;38.60;64009.31;5082119;28;20275;-77
2022/05/01 11:37:23;;;;;;;2.30;2.10;;;;;;;19.24;40.32;63989.97;5086861;28;20462;-77
2022/05/01 11:40:23;;;;;;;2.47;2.38;;;;;;;19.41;39.52;64003.06;5083446;28;20200;-77
2022/05/01 11:42:51;;;;;;;2.28;2.08;;;;;;;19.87;38.99;64055.16;5079837;28;20234;-76
2022/05/01 11:45:19;;;;;;;2.47;2.28;;;;;;;19.86;37.31;64048.97;5078107;28;20208;-78
2022/05/01 11:47:53;;;;;;;1.90;1.77;;;;;;;19.94;36.74;64062.47;5080547;28;20234;-77
2022/05/01 11:50:23;;;;;;;1.85;1.85;;;;;;;19.93;37.86;64061.94;5084857;28;20257;-76
2022/05/01 11:52:54;;;;;;;2.00;1.92;;;;;;;19.79;37.49;64042.19;5078951;28;20294;-76
2022/05/01 12:02:24;;;;;;;1.63;1.60;;;;;;;19.80;36.86;64045.28;5084700;28;20237;-77
2022/05/01 12:03:54;;;;;;;1.77;1.77;;;;;;;19.83;35.81;64051.00;5002455;28;20391;-78
2022/05/01 12:06:26;;;;;;;2.58;2.38;;;;;;;19.68;37.05;64033.28;5001210;28;20203;-77